createdAt,value
2019-05-20T00:00:11.725Z,11.33
2019-05-20T00:02:40.679Z,10.30
2019-05-20T00:05:09.843Z,9.97
2019-05-20T00:07:39.089Z,8.57
2019-05-20T00:10:09.152Z,11.30
2019-05-20T00:12:38.448Z,8.47
2019-05-20T00:15:07.548Z,10.90
2019-05-20T00:17:36.800Z,10.03
2019-05-20T00:20:06.672Z,11.00
2019-05-20T00:22:36.084Z,11.10
2019-05-20T00:25:05.604Z,11.40
2019-05-20T00:27:34.776Z,12.03
2019-05-20T00:30:04.364Z,13.40
2019-05-20T00:32:41.187Z,11.90
2019-05-20T00:35:04.501Z,13.50
2019-05-20T00:37:33.802Z,17.73
2019-05-20T00:40:03.207Z,14.10
2019-05-20T00:42:32.612Z,14.63
2019-05-20T00:45:01.581Z,13.00
2019-05-20T00:47:31.033Z,16.73
2019-05-20T00:50:00.355Z,16.67
2019-05-20T00:52:29.402Z,12.87
2019-05-20T00:54:59.115Z,14.80
2019-05-20T00:57:28.162Z,17.13
2019-05-20T00:59:57.861Z,15.97
2019-05-20T01:02:27.516Z,18.47
2019-05-20T01:04:56.963Z,17.67
2019-05-20T01:07:26.508Z,13.07
2019-05-20T01:09:55.825Z,15.10
2019-05-20T01:12:25.452Z,17.80
2019-05-20T01:14:54.496Z,16.33
2019-05-20T01:17:23.824Z,23.73
2019-05-20T01:19:53.537Z,13.93
2019-05-20T01:22:22.906Z,21.70
2019-05-20T01:24:52.336Z,21.50
2019-05-20T01:27:21.660Z,14.00
2019-05-20T01:29:50.940Z,14.73
2019-05-20T01:32:20.240Z,18.70
2019-05-20T01:34:49.361Z,18.50
2019-05-20T01:37:18.940Z,19.37
2019-05-20T01:42:19.304Z,18.73
2019-05-20T01:44:48.988Z,22.23
2019-05-20T01:47:18.111Z,21.33
2019-05-20T01:49:47.503Z,18.70
2019-05-20T01:52:16.552Z,17.80
2019-05-20T01:54:45.925Z,20.40
2019-05-20T01:57:14.982Z,19.30
2019-05-20T01:59:44.386Z,17.80
2019-05-20T02:02:13.776Z,22.30
2019-05-20T02:04:43.483Z,16.80
2019-05-20T02:07:13.202Z,22.47
2019-05-20T02:09:42.504Z,18.77
2019-05-20T02:12:12.246Z,18.47
2019-05-20T02:14:55.952Z,19.10
2019-05-20T02:17:25.008Z,21.40
2019-05-20T02:19:54.060Z,19.77
2019-05-20T02:22:23.469Z,20.37
2019-05-20T02:24:52.521Z,20.70
2019-05-20T02:27:22.137Z,17.10
2019-05-20T02:29:51.472Z,19.27
2019-05-20T02:32:20.527Z,18.10
2019-05-20T02:34:49.933Z,19.83
2019-05-20T02:37:18.988Z,19.47
2019-05-20T02:39:48.323Z,21.47
2019-05-20T02:42:17.776Z,19.73
2019-05-20T02:44:46.837Z,24.20
2019-05-20T02:47:16.225Z,17.27
2019-05-20T02:49:45.268Z,21.93
2019-05-20T02:52:14.316Z,19.97
2019-05-20T02:54:43.740Z,17.00
2019-05-20T02:57:12.847Z,13.50
2019-05-20T02:59:42.537Z,18.83
2019-05-20T03:02:11.837Z,25.70
2019-05-20T03:04:40.884Z,17.67
2019-05-20T03:07:10.209Z,19.10
2019-05-20T03:09:39.257Z,17.57
2019-05-20T03:12:08.426Z,17.20
2019-05-20T03:14:37.459Z,20.40
2019-05-20T03:17:06.803Z,20.77
2019-05-20T03:19:36.773Z,23.30
2019-05-20T03:22:05.852Z,22.20
2019-05-20T03:24:35.227Z,18.07
2019-05-20T03:27:04.606Z,27.13
2019-05-20T03:29:34.218Z,22.47
2019-05-20T03:32:03.269Z,19.00
2019-05-20T03:34:46.739Z,18.50
2019-05-20T03:37:03.124Z,17.23
2019-05-20T03:39:32.288Z,15.03
2019-05-20T03:42:01.649Z,17.83
2019-05-20T03:44:31.041Z,19.80
2019-05-20T03:47:00.091Z,19.20
2019-05-20T03:49:29.746Z,18.27
2019-05-20T03:51:58.798Z,18.40
2019-05-20T03:54:28.170Z,16.50
2019-05-20T03:56:57.812Z,15.93
2019-05-20T03:59:26.865Z,16.60
2019-05-20T04:01:56.445Z,18.53
2019-05-20T04:04:25.817Z,16.57
2019-05-20T04:06:55.264Z,16.27
2019-05-20T04:09:25.242Z,14.57
2019-05-20T04:11:54.597Z,15.73
2019-05-20T04:14:23.666Z,16.70
2019-05-20T04:16:53.369Z,19.40
2019-05-20T04:19:22.768Z,26.00
2019-05-20T04:21:51.828Z,16.53
2019-05-20T04:24:21.168Z,17.90
2019-05-20T04:26:53.596Z,18.60
2019-05-20T04:29:22.951Z,19.50
2019-05-20T04:31:52.555Z,20.93
2019-05-20T04:34:21.981Z,16.73
2019-05-20T04:36:51.868Z,16.93
2019-05-20T04:39:21.260Z,15.57
2019-05-20T04:41:50.665Z,14.30
2019-05-20T04:44:20.341Z,21.50
2019-05-20T04:46:49.981Z,16.73
2019-05-20T04:49:19.044Z,17.50
2019-05-20T04:51:48.086Z,13.93
2019-05-20T04:54:17.149Z,13.67
2019-05-20T04:56:46.565Z,17.43
2019-05-20T04:59:15.971Z,17.33
2019-05-20T05:01:45.364Z,12.70
2019-05-20T05:04:14.793Z,14.83
2019-05-20T05:06:44.169Z,15.33
2019-05-20T05:09:15.666Z,15.40
2019-05-20T05:11:44.560Z,13.67
2019-05-20T05:14:14.324Z,13.53
2019-05-20T05:16:43.655Z,13.63
2019-05-20T05:19:13.368Z,12.77
2019-05-20T05:21:43.072Z,13.00
2019-05-20T05:24:12.124Z,14.83
2019-05-20T05:26:41.176Z,10.60
2019-05-20T05:29:10.853Z,20.50
2019-05-20T05:31:40.544Z,9.93
2019-05-20T05:34:09.610Z,11.83
2019-05-20T05:36:38.952Z,10.40
2019-05-20T05:39:08.376Z,11.40
2019-05-20T05:41:37.432Z,8.60
2019-05-20T05:44:06.738Z,10.17
2019-05-20T05:46:35.793Z,9.70
2019-05-20T05:49:04.978Z,10.87
2019-05-20T05:51:34.124Z,11.07
2019-05-20T05:54:03.537Z,10.03
2019-05-20T05:56:32.929Z,9.33
2019-05-20T05:59:02.344Z,10.13
2019-05-20T06:01:31.741Z,14.50
2019-05-20T06:04:00.800Z,10.97
2019-05-20T06:06:29.848Z,9.53
2019-05-20T06:08:59.544Z,13.77
2019-05-20T06:11:28.608Z,10.70
2019-05-20T06:13:57.949Z,8.27
2019-05-20T06:16:36.572Z,11.30
2019-05-20T06:18:58.473Z,10.93
2019-05-20T06:21:27.872Z,11.03
2019-05-20T06:23:57.216Z,12.17
2019-05-20T06:26:26.590Z,11.10
2019-05-20T06:28:55.976Z,13.23
2019-05-20T06:31:25.040Z,13.83
2019-05-20T06:33:54.679Z,10.03
2019-05-20T06:36:26.853Z,11.40
2019-05-20T06:39:11.276Z,10.83
2019-05-20T06:41:42.255Z,15.77
2019-05-20T06:44:11.665Z,14.40
2019-05-20T06:46:41.068Z,12.27
2019-05-20T06:49:10.109Z,11.00
2019-05-20T06:51:39.169Z,16.43
2019-05-20T06:54:08.224Z,11.07
2019-05-20T06:56:37.864Z,8.87
2019-05-20T06:59:06.912Z,12.73
2019-05-20T07:01:36.329Z,11.43
2019-05-20T07:04:05.833Z,14.63
2019-05-20T07:06:46.020Z,11.90
2019-05-20T07:09:07.148Z,13.30
2019-05-20T07:11:36.226Z,12.17
2019-05-20T07:14:05.291Z,13.23
2019-05-20T07:16:34.356Z,14.00
2019-05-20T07:19:03.679Z,13.53
2019-05-20T07:21:33.082Z,15.73
2019-05-20T07:24:02.404Z,20.90
2019-05-20T07:26:31.757Z,16.00
2019-05-20T07:29:01.092Z,12.33
2019-05-20T07:31:30.184Z,18.67
2019-05-20T07:33:59.622Z,17.13
2019-05-20T07:36:28.977Z,15.57
2019-05-20T07:38:58.095Z,18.70
2019-05-20T07:41:27.501Z,13.67
2019-05-20T07:43:56.560Z,16.83
2019-05-20T07:46:25.666Z,17.70
2019-05-20T07:48:55.395Z,15.70
2019-05-20T07:51:25.017Z,20.97
2019-05-20T07:53:54.406Z,16.07
2019-05-20T07:56:27.093Z,15.83
2019-05-20T07:58:59.085Z,24.63
2019-05-20T08:01:28.484Z,20.83
2019-05-20T08:03:57.951Z,16.60
2019-05-20T08:06:27.051Z,17.20
2019-05-20T08:08:56.161Z,16.20
2019-05-20T08:11:25.276Z,21.90
2019-05-20T08:13:54.736Z,20.10
2019-05-20T08:16:23.860Z,19.20
2019-05-20T08:18:52.932Z,20.60
2019-05-20T08:21:22.417Z,22.07
2019-05-20T08:23:51.826Z,19.60
2019-05-20T08:26:20.902Z,18.80
2019-05-20T08:28:50.228Z,20.93
2019-05-20T08:31:19.618Z,30.23
2019-05-20T08:33:48.686Z,23.77
2019-05-20T08:36:17.814Z,19.77
2019-05-20T08:38:47.205Z,22.07
2019-05-20T08:41:16.632Z,26.37
2019-05-20T08:43:46.112Z,17.70
2019-05-20T08:46:15.169Z,21.30
2019-05-20T08:48:44.552Z,28.13
2019-05-20T08:51:14.219Z,23.50
2019-05-20T08:53:43.306Z,26.23
2019-05-20T08:56:12.378Z,24.83
2019-05-20T08:58:41.857Z,26.67
2019-05-20T09:01:12.244Z,27.03
2019-05-20T09:03:42.247Z,41.10
2019-05-20T09:06:11.673Z,31.13
2019-05-20T09:08:41.159Z,28.47
2019-05-20T09:11:10.218Z,30.70
2019-05-20T09:13:39.545Z,27.50
2019-05-20T09:16:08.961Z,29.50
2019-05-20T09:18:38.705Z,32.97
2019-05-20T09:21:08.170Z,31.20
2019-05-20T09:23:38.909Z,28.27
2019-05-20T09:26:07.951Z,26.90
2019-05-20T09:28:37.137Z,23.87
2019-05-20T09:31:07.937Z,27.13
2019-05-20T09:33:37.953Z,26.30
2019-05-20T09:36:07.203Z,28.63
2019-05-20T09:38:37.398Z,27.60
2019-05-20T09:41:06.881Z,24.73
2019-05-20T09:43:35.972Z,27.20
2019-05-20T09:46:07.978Z,26.63
2019-05-20T09:48:35.874Z,26.00
2019-05-20T09:51:04.971Z,25.20
2019-05-20T09:53:34.072Z,31.30
2019-05-20T09:56:03.701Z,35.20
2019-05-20T09:58:32.793Z,36.60
2019-05-20T10:01:02.192Z,29.50
2019-05-20T10:03:31.701Z,31.80
2019-05-20T10:06:01.250Z,30.47
2019-05-20T10:08:39.060Z,26.83
2019-05-20T10:11:01.563Z,29.60
2019-05-20T10:13:31.245Z,28.57
2019-05-20T10:16:00.292Z,30.50
2019-05-20T10:18:37.336Z,35.60
2019-05-20T10:21:01.221Z,35.10
2019-05-20T10:23:30.635Z,30.53
2019-05-20T10:25:59.696Z,34.37
2019-05-20T10:28:29.027Z,32.37
2019-05-20T10:30:58.176Z,35.30
2019-05-20T10:33:27.590Z,32.53
2019-05-20T10:35:57.300Z,33.10
2019-05-20T10:38:26.813Z,29.87
2019-05-20T10:40:56.128Z,31.10
2019-05-20T10:43:25.504Z,37.33
2019-05-20T10:45:54.825Z,37.33
2019-05-20T10:48:23.883Z,37.17
2019-05-20T10:50:52.936Z,32.87
2019-05-20T10:53:22.660Z,33.67
2019-05-20T10:55:51.784Z,37.40
2019-05-20T10:58:21.509Z,33.70
2019-05-20T11:01:01.730Z,30.90
2019-05-20T11:03:22.153Z,34.30
2019-05-20T11:05:51.575Z,31.47
2019-05-20T11:08:20.704Z,32.33
2019-05-20T11:10:50.103Z,28.97
2019-05-20T11:13:19.765Z,30.40
2019-05-20T11:15:49.108Z,31.93
2019-05-20T11:18:18.144Z,32.20
2019-05-20T11:20:47.254Z,35.27
2019-05-20T11:23:16.960Z,33.67
2019-05-20T11:25:46.669Z,32.20
2019-05-20T11:28:15.720Z,31.73
2019-05-20T11:30:45.100Z,38.10
2019-05-20T11:33:14.465Z,38.20
2019-05-20T11:35:43.904Z,35.30
2019-05-20T11:38:13.218Z,46.03
2019-05-20T11:40:42.284Z,33.77
2019-05-20T11:43:11.717Z,37.90
2019-05-20T11:45:41.280Z,34.87
2019-05-20T11:48:10.337Z,38.23
2019-05-20T11:50:39.715Z,34.67
2019-05-20T11:53:09.158Z,34.63
2019-05-20T11:55:38.513Z,50.67
2019-05-20T11:58:15.612Z,45.50
2019-05-20T12:00:39.428Z,41.70
2019-05-20T12:03:08.485Z,44.57
2019-05-20T12:05:37.856Z,51.07
2019-05-20T12:08:06.956Z,80.00
2019-05-20T12:10:36.284Z,97.00
2019-05-20T12:13:05.385Z,78.80
2019-05-20T12:15:34.973Z,44.50
2019-05-20T12:18:04.017Z,59.50
2019-05-20T12:20:33.109Z,46.07
2019-05-20T12:23:02.427Z,51.33
2019-05-20T12:25:31.487Z,57.37
2019-05-20T12:28:00.806Z,78.00
2019-05-20T12:30:29.887Z,57.67
2019-05-20T12:33:17.969Z,52.17
2019-05-20T12:35:30.265Z,48.70
2019-05-20T12:37:59.871Z,41.43
2019-05-20T12:40:29.201Z,45.70
2019-05-20T12:42:59.113Z,44.03
2019-05-20T12:45:28.217Z,57.13
2019-05-20T12:47:57.525Z,50.57
2019-05-20T12:50:46.209Z,60.50
2019-05-20T12:53:15.518Z,66.80
2019-05-20T12:55:45.388Z,66.93
2019-05-20T12:58:14.684Z,67.00
2019-05-20T13:00:44.104Z,60.23
2019-05-20T13:03:14.193Z,57.57
2019-05-20T13:05:43.293Z,66.43
2019-05-20T13:08:13.182Z,58.00
2019-05-20T13:10:42.314Z,51.33
2019-05-20T13:13:11.360Z,48.53
2019-05-20T13:15:40.741Z,46.53
2019-05-20T13:18:09.788Z,57.80
2019-05-20T13:20:39.109Z,49.70
2019-05-20T13:23:10.287Z,47.90
2019-05-20T13:25:39.529Z,43.63
2019-05-20T13:28:08.832Z,51.57
2019-05-20T13:30:38.304Z,43.50
2019-05-20T13:33:07.746Z,45.17
2019-05-20T13:35:37.309Z,44.60
2019-05-20T13:38:06.375Z,36.70
2019-05-20T13:40:46.042Z,34.90
2019-05-20T13:43:06.455Z,35.90
2019-05-20T13:45:36.294Z,36.80
2019-05-20T13:48:05.360Z,42.73
2019-05-20T13:50:34.542Z,29.00
2019-05-20T13:53:03.600Z,30.47
2019-05-20T13:55:32.647Z,26.40
2019-05-20T13:58:01.708Z,26.00
2019-05-20T14:00:30.758Z,18.97
2019-05-20T14:02:59.837Z,13.60
2019-05-20T14:05:28.972Z,16.97
2019-05-20T14:07:58.288Z,23.90
2019-05-20T14:10:27.361Z,21.03
2019-05-20T14:12:56.488Z,20.20
2019-05-20T14:15:25.541Z,15.83
2019-05-20T14:17:54.653Z,14.90
2019-05-20T14:20:23.993Z,22.93
2019-05-20T14:22:53.569Z,12.20
2019-05-20T14:25:22.897Z,14.67
2019-05-20T14:27:52.008Z,14.70
2019-05-20T14:30:21.317Z,14.50
2019-05-20T14:32:50.669Z,17.90
2019-05-20T14:35:19.719Z,22.33
2019-05-20T14:37:48.829Z,26.10
2019-05-20T14:40:17.900Z,30.43
2019-05-20T14:42:47.227Z,29.23
2019-05-20T14:45:16.309Z,34.07
2019-05-20T14:47:45.516Z,31.07
2019-05-20T14:50:14.826Z,33.37
2019-05-20T14:52:44.128Z,33.87
2019-05-20T14:55:13.458Z,39.50
2019-05-20T14:57:43.347Z,25.50
2019-05-20T15:00:12.480Z,26.27
2019-05-20T15:02:42.144Z,23.63
2019-05-20T15:05:11.456Z,24.30
2019-05-20T15:07:40.781Z,26.87
2019-05-20T15:10:10.986Z,19.60
2019-05-20T15:12:40.855Z,26.20
2019-05-20T15:15:10.674Z,24.50
2019-05-20T15:17:39.748Z,19.70
2019-05-20T15:20:08.917Z,19.53
2019-05-20T15:22:37.995Z,22.03
2019-05-20T15:25:07.264Z,24.43
2019-05-20T15:27:36.331Z,18.90
2019-05-20T15:30:07.976Z,17.50
2019-05-20T15:32:37.052Z,22.10
2019-05-20T15:35:06.140Z,24.70
2019-05-20T15:37:35.466Z,25.67
2019-05-20T15:40:05.209Z,23.10
2019-05-20T15:42:34.608Z,22.47
2019-05-20T15:45:03.744Z,23.70
2019-05-20T15:47:33.080Z,22.83
2019-05-20T15:50:04.674Z,23.93
2019-05-20T15:52:33.340Z,23.17
2019-05-20T15:55:02.807Z,28.67
2019-05-20T15:57:32.193Z,33.80
2019-05-20T16:00:01.506Z,31.60
2019-05-20T16:02:31.092Z,38.13
2019-05-20T16:05:00.670Z,33.27
2019-05-20T16:07:29.773Z,42.10
2019-05-20T16:09:59.349Z,44.30
2019-05-20T16:12:28.670Z,39.57
2019-05-20T16:14:58.239Z,43.90
2019-05-20T16:17:27.549Z,50.90
2019-05-20T16:19:56.860Z,58.30
2019-05-20T16:22:26.212Z,58.00
2019-05-20T16:24:55.772Z,59.00
2019-05-20T16:27:25.112Z,57.70
2019-05-20T16:30:05.963Z,61.13
2019-05-20T16:32:26.165Z,72.30
2019-05-20T16:34:55.212Z,69.00
2019-05-20T16:37:24.900Z,61.73
2019-05-20T16:39:53.945Z,62.23
2019-05-20T16:42:23.013Z,63.90
2019-05-20T16:44:52.149Z,63.80
2019-05-20T16:47:21.578Z,69.17
2019-05-20T16:49:51.271Z,70.27
2019-05-20T16:52:20.345Z,75.87
2019-05-20T16:54:49.908Z,60.77
2019-05-20T16:57:19.583Z,63.47
2019-05-20T16:59:48.968Z,73.20
2019-05-20T17:02:18.148Z,88.43
2019-05-20T17:04:47.574Z,80.77
2019-05-20T17:07:16.634Z,76.90
2019-05-20T17:09:46.273Z,87.67
2019-05-20T17:12:15.324Z,85.43
2019-05-20T17:14:44.978Z,82.60
2019-05-20T17:17:14.014Z,86.17
2019-05-20T17:19:43.678Z,94.60
2019-05-20T17:22:13.070Z,96.27
2019-05-20T17:24:42.116Z,96.73
2019-05-20T17:27:11.168Z,96.07
2019-05-20T17:29:40.247Z,95.93
2019-05-20T17:32:09.301Z,98.20
2019-05-20T17:34:39.012Z,97.57
2019-05-20T17:37:08.363Z,95.23
2019-05-20T17:39:38.109Z,106.43
2019-05-20T17:42:07.510Z,113.93
2019-05-20T17:44:36.622Z,130.17
2019-05-20T17:47:05.976Z,111.60
2019-05-20T17:49:35.697Z,103.63
2019-05-20T17:52:05.116Z,106.43
2019-05-20T17:54:34.500Z,90.57
2019-05-20T17:57:03.908Z,92.43
2019-05-20T17:59:33.329Z,109.93
2019-05-20T18:02:04.668Z,90.53
2019-05-20T18:04:34.050Z,121.97
2019-05-20T18:07:03.448Z,97.43
2019-05-20T18:09:34.492Z,117.43
2019-05-20T18:12:03.803Z,102.47
2019-05-20T18:14:33.214Z,98.37
2019-05-20T18:17:02.695Z,100.83
2019-05-20T18:19:51.392Z,100.43
2019-05-20T18:22:20.871Z,101.40
2019-05-20T18:24:50.360Z,114.53
2019-05-20T18:27:19.464Z,116.40
2019-05-20T18:29:48.880Z,106.23
2019-05-20T18:32:18.481Z,95.87
2019-05-20T18:34:48.071Z,115.13
2019-05-20T18:37:17.376Z,99.03
2019-05-20T18:39:46.760Z,107.57
2019-05-20T18:42:16.065Z,111.57
2019-05-20T18:44:45.921Z,104.00
2019-05-20T18:47:15.498Z,99.70
2019-05-20T18:49:44.826Z,110.60
2019-05-20T18:52:13.877Z,82.73
2019-05-20T18:54:42.937Z,69.67
2019-05-20T18:57:12.500Z,77.83
2019-05-20T18:59:41.824Z,91.03
2019-05-20T19:02:11.415Z,71.03
2019-05-20T19:04:40.524Z,88.60
2019-05-20T19:07:09.836Z,109.00
2019-05-20T19:09:39.154Z,85.83
2019-05-20T19:12:09.060Z,98.97
2019-05-20T19:14:38.124Z,101.37
2019-05-20T19:17:07.739Z,83.63
2019-05-20T19:19:37.344Z,89.37
2019-05-20T19:22:06.726Z,97.57
2019-05-20T19:24:36.058Z,92.23
2019-05-20T19:27:05.756Z,82.83
2019-05-20T19:29:35.370Z,87.03
2019-05-20T19:32:04.828Z,78.07
2019-05-20T19:34:34.136Z,83.50
2019-05-20T19:37:03.296Z,75.60
2019-05-20T19:39:33.225Z,88.13
2019-05-20T19:42:02.571Z,67.00
2019-05-20T19:44:31.972Z,66.83
2019-05-20T19:47:01.288Z,62.77
2019-05-20T19:49:31.145Z,66.20
2019-05-20T19:52:00.463Z,65.33
2019-05-20T19:54:29.796Z,51.23
2019-05-20T19:56:58.853Z,53.03
2019-05-20T19:59:27.992Z,62.73
2019-05-20T20:01:57.057Z,65.03
2019-05-20T20:04:26.116Z,59.47
2019-05-20T20:06:55.840Z,61.97
2019-05-20T20:09:25.590Z,71.30
2019-05-20T20:11:55.037Z,62.83
2019-05-20T20:14:24.900Z,51.60
2019-05-20T20:16:54.880Z,56.57
2019-05-20T20:19:24.564Z,48.57
2019-05-20T20:21:54.609Z,54.33
2019-05-20T20:24:24.214Z,45.23
2019-05-20T20:26:53.259Z,51.73
2019-05-20T20:29:22.916Z,48.70
2019-05-20T20:31:52.520Z,48.37
2019-05-20T20:34:21.924Z,38.53
2019-05-20T20:36:51.250Z,43.70
2019-05-20T20:39:20.832Z,45.80
2019-05-20T20:41:50.449Z,49.53
2019-05-20T20:44:20.044Z,42.40
2019-05-20T20:46:49.448Z,43.93
2019-05-20T20:49:37.611Z,45.13
2019-05-20T20:52:06.989Z,40.67
2019-05-20T20:54:36.961Z,43.00
2019-05-20T20:57:06.032Z,40.70
2019-05-20T20:59:35.708Z,40.90
2019-05-20T21:02:04.831Z,45.40
2019-05-20T21:04:34.520Z,48.73
2019-05-20T21:07:04.215Z,37.73
2019-05-20T21:09:33.677Z,56.20
2019-05-20T21:12:03.203Z,58.03
2019-05-20T21:14:32.333Z,54.03
2019-05-20T21:17:01.779Z,57.23
2019-05-20T21:19:31.251Z,68.40
2019-05-20T21:22:01.277Z,55.27
2019-05-20T21:24:30.337Z,77.37
2019-05-20T21:26:59.451Z,69.97
2019-05-20T21:29:32.353Z,77.90
2019-05-20T21:32:00.294Z,79.47
2019-05-20T21:34:30.001Z,87.80
2019-05-20T21:36:59.340Z,86.00
2019-05-20T21:39:28.410Z,82.67
2019-05-20T21:41:58.111Z,89.33
2019-05-20T21:44:27.515Z,85.70
2019-05-20T21:46:56.909Z,105.50
2019-05-20T21:49:26.639Z,91.50
2019-05-20T21:51:56.021Z,81.10
2019-05-20T21:54:25.076Z,80.03
2019-05-20T21:56:54.439Z,80.40
2019-05-20T21:59:24.090Z,97.00
2019-05-20T22:01:53.424Z,83.30
2019-05-20T22:04:23.132Z,72.47
2019-05-20T22:06:52.200Z,71.13
2019-05-20T22:09:22.100Z,70.37
2019-05-20T22:11:51.753Z,67.23
2019-05-20T22:14:20.800Z,73.60
2019-05-20T22:16:49.865Z,87.23
2019-05-20T22:19:19.828Z,87.87
2019-05-20T22:22:05.940Z,78.60
2019-05-20T22:24:35.357Z,87.00
2019-05-20T22:27:05.097Z,81.83
2019-05-20T22:29:34.151Z,81.07
2019-05-20T22:32:04.154Z,64.47
2019-05-20T22:34:33.204Z,73.47
2019-05-20T22:37:02.605Z,57.27
2019-05-20T22:39:31.655Z,62.57
2019-05-20T22:42:00.719Z,59.40
2019-05-20T22:44:30.053Z,46.80
2019-05-20T22:46:59.760Z,48.70
2019-05-20T22:49:29.368Z,64.13
2019-05-20T22:51:58.816Z,50.30
2019-05-20T22:54:28.179Z,59.83
2019-05-20T22:56:57.888Z,40.57
2019-05-20T22:59:27.640Z,46.13
2019-05-20T23:01:57.097Z,49.80
2019-05-20T23:04:27.213Z,36.73
2019-05-20T23:06:56.524Z,64.53
2019-05-20T23:09:26.248Z,39.50
2019-05-20T23:11:55.933Z,38.30
2019-05-20T23:14:25.240Z,38.77
2019-05-20T23:16:54.633Z,35.17
2019-05-20T23:19:24.041Z,41.97
2019-05-20T23:21:53.420Z,39.27
2019-05-20T23:24:22.840Z,34.67
2019-05-20T23:26:52.649Z,30.77
2019-05-20T23:29:22.364Z,43.93
2019-05-20T23:31:51.773Z,37.13
2019-05-20T23:34:21.165Z,38.03
2019-05-20T23:36:50.223Z,34.83
2019-05-20T23:39:19.873Z,36.53
2019-05-20T23:41:49.264Z,36.57
2019-05-20T23:44:18.345Z,36.23
2019-05-20T23:46:47.804Z,39.63
2019-05-20T23:49:16.904Z,44.63
2019-05-20T23:51:46.364Z,36.87
2019-05-20T23:54:15.488Z,40.60
2019-05-20T23:56:45.168Z,30.40
2019-05-20T23:59:14.568Z,46.20
